createdAt,value
2023-01-04T00:01:15.019Z,2.45
2023-01-04T00:03:42.395Z,2.70
2023-01-04T00:06:12.641Z,2.03
2023-01-04T00:08:39.597Z,2.20
2023-01-04T00:11:08.927Z,2.72
2023-01-04T00:13:35.846Z,2.53
2023-01-04T00:16:08.672Z,2.35
2023-01-04T00:18:37.357Z,2.33
2023-01-04T00:21:28.626Z,2.20
2023-01-04T00:23:58.066Z,2.08
2023-01-04T00:26:30.360Z,2.55
2023-01-04T00:29:03.908Z,2.03
2023-01-04T00:31:31.150Z,1.90
2023-01-04T00:34:00.373Z,2.25
2023-01-04T00:36:28.276Z,2.15
2023-01-04T00:39:10.748Z,2.05
2023-01-04T00:44:25.955Z,2.35
2023-01-04T00:46:52.970Z,2.38
2023-01-04T00:49:19.944Z,2.05
2023-01-04T00:51:46.741Z,2.58
2023-01-04T00:54:15.219Z,2.47
2023-01-04T00:56:42.445Z,3.20
2023-01-04T00:59:12.560Z,1.50
2023-01-04T01:01:40.307Z,1.70
2023-01-04T01:04:07.443Z,3.10
2023-01-04T01:06:34.855Z,2.25
2023-01-04T01:09:01.789Z,2.20
2023-01-04T01:11:29.931Z,2.58
2023-01-04T01:13:58.251Z,2.97
2023-01-04T01:16:53.247Z,2.00
2023-01-04T01:19:14.690Z,1.83
2023-01-04T01:21:41.695Z,1.90
2023-01-04T01:24:15.962Z,2.05
2023-01-04T01:26:42.930Z,2.17
2023-01-04T01:29:09.760Z,2.08
2023-01-04T01:31:36.743Z,1.83
2023-01-04T01:34:03.620Z,1.80
2023-01-04T01:36:30.657Z,1.73
2023-01-04T01:38:57.507Z,2.25
2023-01-04T01:41:29.812Z,1.33
2023-01-04T01:44:34.416Z,1.63
2023-01-04T01:47:01.765Z,1.73
2023-01-04T01:49:37.376Z,1.80
2023-01-04T01:52:13.275Z,2.47
2023-01-04T01:54:44.614Z,1.27
2023-01-04T01:57:16.732Z,1.55
2023-01-04T01:59:47.384Z,1.80
2023-01-04T02:02:14.538Z,2.25
2023-01-04T02:04:46.388Z,2.03
2023-01-04T02:07:18.208Z,1.88
2023-01-04T02:09:46.383Z,1.50
2023-01-04T02:12:14.231Z,1.83
2023-01-04T02:14:44.163Z,1.80
2023-01-04T02:17:25.679Z,1.48
2023-01-04T02:20:13.428Z,1.40
2023-01-04T02:23:17.406Z,2.53
2023-01-04T02:26:02.840Z,1.83
2023-01-04T02:28:47.797Z,1.92
2023-01-04T02:31:29.445Z,1.48
2023-01-04T02:34:07.980Z,1.77
2023-01-04T02:36:43.599Z,2.17
2023-01-04T02:39:30.625Z,1.40
2023-01-04T02:42:20.329Z,1.45
2023-01-04T02:44:53.657Z,1.73
2023-01-04T02:47:56.985Z,1.52
2023-01-04T02:50:31.082Z,2.35
2023-01-04T02:53:19.378Z,1.73
2023-01-04T02:56:35.433Z,0.80
2023-01-04T02:59:23.244Z,1.30
2023-01-04T03:02:21.603Z,0.90
2023-01-04T03:05:19.192Z,1.85
2023-01-04T03:07:45.921Z,1.25
2023-01-04T03:10:21.496Z,1.40
2023-01-04T03:13:08.846Z,1.33
2023-01-04T03:15:39.904Z,1.10
2023-01-04T03:18:17.164Z,1.63
2023-01-04T03:20:46.770Z,2.22
2023-01-04T03:23:36.984Z,1.02
2023-01-04T03:26:28.943Z,1.57
2023-01-04T03:29:18.039Z,1.17
2023-01-04T03:32:18.128Z,1.42
2023-01-04T03:35:03.762Z,1.55
2023-01-04T03:37:45.552Z,1.50
2023-01-04T03:40:48.837Z,0.80
2023-01-04T03:43:46.737Z,0.95
2023-01-04T03:46:46.373Z,1.20
2023-01-04T03:49:29.609Z,1.45
2023-01-04T03:52:00.525Z,1.83
2023-01-04T03:54:33.200Z,0.77
2023-01-04T03:57:01.009Z,2.55
2023-01-04T03:59:27.852Z,1.10
2023-01-04T04:01:54.871Z,1.67
2023-01-04T04:04:40.189Z,1.45
2023-01-04T04:07:25.801Z,1.30
2023-01-04T04:09:52.614Z,1.38
2023-01-04T04:12:19.439Z,1.80
2023-01-04T04:14:46.328Z,0.80
2023-01-04T04:17:13.089Z,1.60
2023-01-04T04:19:39.888Z,1.63
2023-01-04T04:22:06.653Z,1.27
2023-01-04T04:24:33.488Z,1.30
2023-01-04T04:27:00.268Z,1.27
2023-01-04T04:29:27.199Z,1.20
2023-01-04T04:31:54.065Z,1.00
2023-01-04T04:34:21.001Z,1.80
2023-01-04T04:36:47.844Z,1.33
2023-01-04T04:39:14.746Z,1.38
2023-01-04T04:41:42.040Z,1.13
2023-01-04T04:44:11.570Z,1.40
2023-01-04T04:46:38.750Z,1.15
2023-01-04T04:49:06.958Z,1.40
2023-01-04T04:51:33.985Z,1.10
2023-01-04T04:54:00.985Z,1.17
2023-01-04T04:56:28.168Z,1.17
2023-01-04T04:58:55.018Z,1.83
2023-01-04T05:01:21.948Z,1.83
2023-01-04T05:03:48.908Z,1.08
2023-01-04T05:06:15.741Z,1.42
2023-01-04T05:08:42.557Z,1.40
2023-01-04T05:11:11.834Z,2.03
2023-01-04T05:13:39.047Z,1.58
2023-01-04T05:16:07.405Z,1.23
2023-01-04T05:18:34.429Z,1.70
2023-01-04T05:21:02.540Z,1.40
2023-01-04T05:23:29.479Z,2.05
2023-01-04T05:26:01.192Z,1.00
2023-01-04T05:28:28.515Z,0.73
2023-01-04T05:30:56.002Z,1.20
2023-01-04T05:33:28.315Z,1.02
2023-01-04T05:35:57.329Z,1.60
2023-01-04T05:38:25.021Z,1.73
2023-01-04T05:40:52.642Z,1.50
2023-01-04T05:43:21.102Z,1.63
2023-01-04T05:45:50.554Z,1.20
2023-01-04T05:48:18.139Z,1.30
2023-01-04T05:50:45.829Z,1.58
2023-01-04T05:53:14.221Z,1.65
2023-01-04T05:55:41.162Z,0.93
2023-01-04T05:58:07.921Z,1.02
2023-01-04T06:00:34.844Z,0.85
2023-01-04T06:03:01.983Z,1.38
2023-01-04T06:05:28.873Z,1.13
2023-01-04T06:07:55.663Z,1.63
2023-01-04T06:10:22.509Z,1.90
2023-01-04T06:12:49.339Z,1.48
2023-01-04T06:15:16.596Z,1.77
2023-01-04T06:17:43.393Z,1.60
2023-01-04T06:20:11.351Z,1.70
2023-01-04T06:22:40.483Z,1.35
2023-01-04T06:25:08.545Z,1.20
2023-01-04T06:27:35.433Z,1.67
2023-01-04T06:30:02.353Z,1.95
2023-01-04T06:32:29.157Z,1.45
2023-01-04T06:34:56.111Z,1.10
2023-01-04T06:37:23.046Z,1.23
2023-01-04T06:39:49.922Z,1.25
2023-01-04T06:42:35.329Z,1.73
2023-01-04T06:45:02.386Z,1.73
2023-01-04T06:47:29.136Z,1.40
2023-01-04T06:49:55.959Z,1.38
2023-01-04T06:52:22.810Z,1.17
2023-01-04T06:54:49.673Z,1.35
2023-01-04T06:57:16.486Z,1.60
2023-01-04T06:59:43.335Z,1.67
2023-01-04T07:02:15.014Z,1.73
2023-01-04T07:04:43.450Z,1.52
2023-01-04T07:07:10.992Z,2.00
2023-01-04T07:09:38.491Z,2.33
2023-01-04T07:12:05.914Z,2.50
2023-01-04T07:14:32.800Z,1.75
2023-01-04T07:16:59.635Z,1.80
2023-01-04T07:19:26.523Z,1.52
2023-01-04T07:21:53.901Z,1.95
2023-01-04T07:24:24.724Z,2.50
2023-01-04T07:26:56.595Z,1.65
2023-01-04T07:29:23.351Z,1.98
2023-01-04T07:31:52.008Z,1.30
2023-01-04T07:34:21.193Z,2.85
2023-01-04T07:36:49.156Z,1.92
2023-01-04T07:39:20.239Z,1.77
2023-01-04T07:41:48.490Z,2.78
2023-01-04T07:44:18.825Z,2.45
2023-01-04T07:46:45.797Z,2.28
2023-01-04T07:49:18.528Z,1.98
2023-01-04T07:51:47.339Z,0.90
2023-01-04T07:54:15.240Z,1.58
2023-01-04T07:56:42.596Z,2.58
2023-01-04T07:59:10.994Z,2.35
2023-01-04T08:01:38.752Z,1.58
2023-01-04T08:04:06.828Z,2.28
2023-01-04T08:06:34.885Z,1.23
2023-01-04T08:09:02.589Z,1.70
2023-01-04T08:11:29.550Z,1.73
2023-01-04T08:13:56.331Z,2.22
2023-01-04T08:16:28.089Z,2.50
2023-01-04T08:18:56.822Z,2.03
2023-01-04T08:21:24.195Z,2.40
2023-01-04T08:23:51.910Z,1.48
2023-01-04T08:26:19.402Z,1.85
2023-01-04T08:28:46.289Z,2.38
2023-01-04T08:31:19.426Z,2.25
2023-01-04T08:33:47.043Z,1.95
2023-01-04T08:36:27.494Z,2.92
2023-01-04T08:39:06.008Z,2.08
2023-01-04T08:44:38.120Z,1.85
2023-01-04T08:47:05.144Z,2.15
2023-01-04T08:49:32.072Z,2.28
2023-01-04T08:51:58.838Z,3.15
2023-01-04T08:54:25.807Z,2.40
2023-01-04T08:56:52.688Z,2.50
2023-01-04T08:59:19.536Z,1.48
2023-01-04T09:01:46.963Z,2.65
2023-01-04T09:04:14.057Z,2.38
2023-01-04T09:06:41.492Z,2.63
2023-01-04T09:09:08.479Z,2.83
2023-01-04T09:11:37.610Z,1.98
2023-01-04T09:14:08.563Z,1.90
2023-01-04T09:16:37.103Z,1.85
2023-01-04T09:19:04.792Z,2.17
2023-01-04T09:21:32.094Z,2.53
2023-01-04T09:23:59.233Z,2.97
2023-01-04T09:26:26.224Z,2.13
2023-01-04T09:28:55.259Z,2.08
2023-01-04T09:31:27.689Z,1.85
2023-01-04T09:36:43.128Z,2.95
2023-01-04T09:39:14.829Z,2.00
2023-01-04T09:42:04.043Z,2.80
2023-01-04T09:45:12.146Z,3.13
2023-01-04T09:47:39.956Z,3.28
2023-01-04T09:50:18.980Z,2.45
2023-01-04T09:53:08.794Z,2.67
2023-01-04T09:55:41.341Z,3.25
2023-01-04T09:58:28.756Z,2.33
2023-01-04T10:01:04.840Z,2.05
2023-01-04T10:03:31.810Z,3.53
2023-01-04T10:05:58.900Z,3.00
2023-01-04T10:08:25.943Z,3.17
2023-01-04T10:11:31.564Z,2.78
2023-01-04T10:14:01.491Z,3.30
2023-01-04T10:23:00.293Z,2.83
2023-01-04T10:25:33.845Z,3.58
2023-01-04T10:28:28.459Z,2.50
2023-01-04T10:31:38.864Z,3.17
2023-01-04T10:34:19.223Z,3.38
2023-01-04T10:36:48.297Z,2.75
2023-01-04T10:39:27.006Z,3.20
2023-01-04T10:42:10.775Z,3.85
2023-01-04T10:45:03.266Z,2.47
2023-01-04T10:47:58.524Z,2.95
2023-01-04T10:50:56.235Z,2.70
2023-01-04T10:53:30.950Z,3.03
2023-01-04T10:56:28.420Z,2.38
2023-01-04T10:59:01.416Z,2.38
2023-01-04T11:01:31.309Z,3.47
2023-01-04T11:03:58.195Z,3.08
2023-01-04T11:06:33.611Z,3.25
2023-01-04T11:09:21.142Z,2.70
2023-01-04T11:11:52.954Z,2.28
2023-01-04T11:14:19.754Z,2.50
2023-01-04T11:16:50.444Z,3.00
2023-01-04T11:19:17.712Z,2.47
2023-01-04T11:22:39.832Z,2.75
2023-01-04T11:28:14.196Z,2.33
2023-01-04T11:31:10.209Z,2.40
2023-01-04T11:34:02.513Z,1.90
2023-01-04T11:36:35.608Z,3.45
2023-01-04T11:39:04.009Z,1.83
2023-01-04T11:41:30.872Z,2.03
2023-01-04T11:44:00.430Z,1.95
2023-01-04T11:46:29.043Z,2.50
2023-01-04T11:48:56.443Z,2.25
2023-01-04T11:51:29.697Z,2.45
2023-01-04T11:54:01.093Z,2.08
2023-01-04T11:56:30.223Z,2.20
2023-01-04T11:59:05.880Z,1.88
2023-01-04T12:01:36.176Z,2.00
2023-01-04T12:04:09.702Z,1.88
2023-01-04T12:06:42.295Z,1.80
2023-01-04T12:09:14.798Z,1.27
2023-01-04T12:11:49.835Z,1.90
2023-01-04T12:14:35.939Z,1.67
2023-01-04T12:17:05.448Z,1.83
2023-01-04T12:19:32.503Z,1.73
2023-01-04T12:22:01.884Z,1.52
2023-01-04T12:24:33.967Z,1.38
2023-01-04T12:27:02.104Z,1.92
2023-01-04T12:29:43.723Z,1.70
2023-01-04T12:32:14.472Z,1.58
2023-01-04T12:34:43.895Z,1.70
2023-01-04T12:37:32.709Z,1.02
2023-01-04T12:39:59.667Z,1.20
2023-01-04T12:42:27.166Z,1.85
2023-01-04T12:44:53.915Z,1.50
2023-01-04T12:47:39.416Z,1.63
2023-01-04T12:50:23.202Z,1.65
2023-01-04T12:53:38.799Z,1.40
2023-01-04T12:55:54.749Z,1.38
2023-01-04T12:58:43.877Z,1.25
2023-01-04T13:01:28.575Z,1.35
2023-01-04T13:06:37.051Z,1.20
2023-01-04T13:09:21.923Z,1.45
2023-01-04T13:12:12.368Z,1.58
2023-01-04T13:14:51.701Z,1.20
2023-01-04T13:17:22.281Z,0.90
2023-01-04T13:19:49.808Z,1.40
2023-01-04T13:22:26.674Z,1.58
2023-01-04T13:24:58.070Z,1.40
2023-01-04T13:27:26.292Z,1.73
2023-01-04T13:29:53.432Z,1.50
2023-01-04T13:32:29.123Z,1.60
2023-01-04T13:34:59.579Z,1.25
2023-01-04T13:37:38.147Z,1.45
2023-01-04T13:40:36.061Z,0.98
2023-01-04T13:43:13.524Z,1.52
2023-01-04T13:46:05.558Z,1.20
2023-01-04T13:48:39.047Z,1.33
2023-01-04T13:51:22.936Z,1.70
2023-01-04T13:53:58.288Z,1.55
2023-01-04T13:56:27.308Z,1.70
2023-01-04T13:58:54.604Z,1.42
2023-01-04T14:01:31.607Z,1.60
2023-01-04T14:04:01.531Z,1.70
2023-01-04T14:06:39.800Z,1.35
2023-01-04T14:09:09.666Z,1.17
2023-01-04T14:12:02.085Z,1.85
2023-01-04T14:14:51.824Z,1.30
2023-01-04T14:17:20.726Z,0.93
2023-01-04T14:19:50.354Z,1.10
2023-01-04T14:22:35.844Z,1.60
2023-01-04T14:25:38.203Z,1.33
2023-01-04T14:28:27.598Z,0.95
2023-01-04T14:31:13.304Z,0.88
2023-01-04T14:33:46.106Z,1.10
2023-01-04T14:36:27.123Z,1.05
2023-01-04T14:41:23.522Z,0.77
2023-01-04T14:44:17.120Z,0.90
2023-01-04T14:46:48.136Z,0.90
2023-01-04T14:51:52.844Z,0.70
2023-01-04T14:54:25.008Z,1.40
2023-01-04T14:56:54.198Z,0.77
2023-01-04T14:59:23.808Z,0.90
2023-01-04T15:01:55.513Z,1.35
2023-01-04T15:04:22.987Z,0.75
2023-01-04T15:06:51.149Z,1.10
2023-01-04T15:09:18.135Z,1.08
2023-01-04T15:11:44.904Z,0.85
2023-01-04T15:14:12.077Z,0.80
2023-01-04T15:16:39.420Z,1.27
2023-01-04T15:19:06.367Z,0.88
2023-01-04T15:21:40.330Z,1.00
2023-01-04T15:24:09.138Z,0.77
2023-01-04T15:26:36.053Z,0.90
2023-01-04T15:29:06.576Z,0.80
2023-01-04T15:31:38.859Z,0.60
2023-01-04T15:34:06.746Z,0.90
2023-01-04T15:36:35.053Z,0.80
2023-01-04T15:39:01.999Z,1.00
2023-01-04T15:41:47.192Z,1.65
2023-01-04T15:44:14.464Z,0.80
2023-01-04T15:46:41.306Z,1.77
2023-01-04T15:49:13.329Z,1.15
2023-01-04T15:51:43.699Z,1.00
2023-01-04T15:54:10.705Z,1.02
2023-01-04T15:56:37.573Z,0.85
2023-01-04T15:59:04.635Z,1.13
2023-01-04T16:01:31.655Z,0.80
2023-01-04T16:03:58.462Z,0.80
2023-01-04T16:06:26.666Z,1.05
2023-01-04T16:08:53.551Z,0.85
2023-01-04T16:11:23.924Z,0.80
2023-01-04T16:13:52.353Z,1.00
2023-01-04T16:16:20.971Z,0.85
2023-01-04T16:18:49.702Z,1.17
2023-01-04T16:21:20.279Z,1.17
2023-01-04T16:24:01.729Z,0.90
2023-01-04T16:26:30.978Z,1.33
2023-01-04T16:28:57.784Z,0.90
2023-01-04T16:31:25.189Z,1.02
2023-01-04T16:33:55.078Z,1.17
2023-01-04T16:36:22.088Z,0.80
2023-01-04T16:38:48.892Z,1.10
2023-01-04T16:41:17.976Z,1.15
2023-01-04T16:43:47.052Z,1.13
2023-01-04T16:46:24.298Z,1.20
2023-01-04T16:48:56.902Z,1.00
2023-01-04T16:51:25.977Z,0.90
2023-01-04T16:53:53.313Z,1.52
2023-01-04T16:56:22.647Z,1.13
2023-01-04T16:58:50.117Z,0.73
2023-01-04T17:01:40.427Z,1.13
2023-01-04T17:04:13.335Z,1.00
2023-01-04T17:06:42.514Z,0.88
2023-01-04T17:09:13.706Z,1.00
2023-01-04T17:14:29.891Z,0.98
2023-01-04T17:16:57.655Z,0.95
2023-01-04T17:19:24.969Z,1.20
2023-01-04T17:21:52.128Z,1.10
2023-01-04T17:24:19.655Z,0.90
2023-01-04T17:26:46.735Z,1.20
2023-01-04T17:29:14.915Z,1.05
2023-01-04T17:31:43.386Z,1.02
2023-01-04T17:34:18.459Z,1.10
2023-01-04T17:36:49.285Z,0.90
2023-01-04T17:39:16.369Z,0.82
2023-01-04T17:41:43.263Z,0.77
2023-01-04T17:44:10.923Z,1.17
2023-01-04T17:46:38.711Z,0.90
2023-01-04T17:49:31.088Z,0.90
2023-01-04T17:51:57.218Z,0.70
2023-01-04T17:54:25.554Z,0.90
2023-01-04T17:56:52.806Z,1.10
2023-01-04T17:59:19.672Z,1.00
2023-01-04T18:01:48.824Z,1.13
2023-01-04T18:04:15.809Z,0.88
2023-01-04T18:06:42.647Z,0.90
2023-01-04T18:09:14.258Z,1.02
2023-01-04T18:11:44.470Z,1.25
2023-01-04T18:14:14.069Z,1.00
2023-01-04T18:16:57.769Z,1.02
2023-01-04T18:19:30.178Z,0.80
2023-01-04T18:21:57.746Z,1.08
2023-01-04T18:24:36.272Z,1.20
2023-01-04T18:27:21.414Z,1.20
2023-01-04T18:29:49.339Z,1.10
2023-01-04T18:32:16.209Z,1.20
2023-01-04T18:34:43.150Z,0.75
2023-01-04T18:37:09.973Z,1.13
2023-01-04T18:39:37.203Z,1.30
2023-01-04T18:42:04.070Z,1.02
2023-01-04T18:44:33.852Z,1.02
2023-01-04T18:47:02.149Z,0.75
2023-01-04T18:49:31.292Z,0.88
2023-01-04T18:51:58.093Z,0.70
2023-01-04T18:54:24.993Z,0.85
2023-01-04T18:56:58.681Z,0.93
2023-01-04T18:59:29.584Z,0.70
2023-01-04T19:02:00.902Z,0.60
2023-01-04T19:04:33.390Z,0.85
2023-01-04T19:07:00.897Z,0.80
2023-01-04T19:09:27.736Z,0.73
2023-01-04T19:11:54.652Z,0.70
2023-01-04T19:14:21.507Z,1.25
2023-01-04T19:16:51.256Z,0.88
2023-01-04T19:19:18.223Z,0.75
2023-01-04T19:21:46.320Z,1.00
2023-01-04T19:24:13.185Z,0.90
2023-01-04T19:26:40.046Z,1.00
2023-01-04T19:29:09.879Z,1.10
2023-01-04T19:31:36.803Z,0.90
2023-01-04T19:34:03.868Z,1.10
2023-01-04T19:36:30.743Z,1.17
2023-01-04T19:38:58.244Z,0.73
2023-01-04T19:41:33.359Z,0.82
2023-01-04T19:44:05.522Z,1.15
2023-01-04T19:46:32.664Z,0.95
2023-01-04T19:48:59.782Z,1.00
2023-01-04T19:51:27.945Z,1.10
2023-01-04T19:53:55.853Z,1.00
2023-01-04T19:56:22.812Z,1.10
2023-01-04T19:58:49.739Z,1.15
2023-01-04T20:01:18.538Z,0.82
2023-01-04T20:03:45.680Z,0.80
2023-01-04T20:06:13.945Z,1.33
2023-01-04T20:08:41.898Z,0.85
2023-01-04T20:11:12.205Z,0.52
2023-01-04T20:13:39.995Z,0.70
2023-01-04T20:16:08.193Z,0.63
2023-01-04T20:18:36.026Z,0.60
2023-01-04T20:21:11.297Z,0.47
2023-01-04T20:23:38.613Z,0.60
2023-01-04T20:26:11.988Z,0.55
2023-01-04T20:28:39.407Z,0.60
2023-01-04T20:31:08.837Z,0.70
2023-01-04T20:33:35.906Z,0.70
2023-01-04T20:36:07.726Z,1.63
2023-01-04T20:38:42.148Z,1.25
2023-01-04T20:41:19.089Z,1.15
2023-01-04T20:43:47.158Z,0.90
2023-01-04T20:46:20.502Z,1.58
2023-01-04T20:48:47.859Z,1.05
2023-01-04T20:51:17.763Z,1.30
2023-01-04T20:53:44.984Z,1.52
2023-01-04T20:56:15.709Z,1.67
2023-01-04T20:58:43.842Z,1.42
2023-01-04T21:01:11.401Z,1.38
2023-01-04T21:03:39.017Z,1.50
2023-01-04T21:06:07.982Z,1.55
2023-01-04T21:08:37.124Z,1.52
2023-01-04T21:11:04.444Z,1.83
2023-01-04T21:13:31.307Z,1.75
2023-01-04T21:15:58.179Z,1.38
2023-01-04T21:18:26.171Z,1.42
2023-01-04T21:20:53.368Z,1.40
2023-01-04T21:23:23.161Z,1.45
2023-01-04T21:25:50.487Z,1.73
2023-01-04T21:28:21.928Z,1.67
2023-01-04T21:30:49.836Z,1.42
2023-01-04T21:33:17.127Z,1.25
2023-01-04T21:35:44.224Z,1.52
2023-01-04T21:38:11.723Z,1.15
2023-01-04T21:40:40.974Z,1.88
2023-01-04T21:43:14.099Z,1.55
2023-01-04T21:45:41.056Z,1.55
2023-01-04T21:48:08.012Z,1.27
2023-01-04T21:50:36.902Z,1.83
2023-01-04T21:53:03.734Z,1.58
2023-01-04T21:55:34.484Z,2.17
2023-01-04T21:58:02.476Z,1.88
2023-01-04T22:00:29.275Z,1.58
2023-01-04T22:02:56.279Z,1.20
2023-01-04T22:05:23.127Z,1.33
2023-01-04T22:07:50.031Z,1.80
2023-01-04T22:10:16.923Z,1.70
2023-01-04T22:12:44.829Z,1.20
2023-01-04T22:15:11.721Z,1.83
2023-01-04T22:17:38.588Z,1.80
2023-01-04T22:20:05.945Z,2.20
2023-01-04T22:22:32.860Z,3.42
2023-01-04T22:24:59.627Z,3.03
2023-01-04T22:27:26.481Z,2.20
2023-01-04T22:29:53.364Z,1.20
2023-01-04T22:32:20.242Z,2.00
2023-01-04T22:34:47.289Z,1.92
2023-01-04T22:37:14.213Z,1.98
2023-01-04T22:39:40.945Z,1.92
2023-01-04T22:42:07.842Z,2.47
2023-01-04T22:44:34.667Z,1.80
2023-01-04T22:47:01.589Z,0.70
2023-01-04T22:49:28.418Z,1.92
2023-01-04T22:51:56.215Z,1.98
2023-01-04T22:54:23.403Z,2.38
2023-01-04T22:56:50.633Z,1.60
2023-01-04T22:59:17.848Z,1.70
2023-01-04T23:01:44.859Z,1.30
2023-01-04T23:04:15.699Z,1.95
2023-01-04T23:06:43.059Z,1.33
2023-01-04T23:09:14.474Z,2.10
2023-01-04T23:11:41.925Z,2.00
2023-01-04T23:14:13.123Z,2.15
2023-01-04T23:16:40.147Z,1.40
2023-01-04T23:19:07.783Z,1.50
2023-01-04T23:21:35.672Z,2.45
2023-01-04T23:24:03.000Z,2.15
2023-01-04T23:26:31.732Z,2.05
2023-01-04T23:28:59.719Z,1.48
2023-01-04T23:31:28.962Z,1.75
2023-01-04T23:34:00.170Z,1.50
2023-01-04T23:36:35.607Z,1.92
2023-01-04T23:39:05.558Z,1.95
2023-01-04T23:41:45.308Z,1.05
2023-01-04T23:46:56.618Z,2.35
2023-01-04T23:49:25.059Z,2.13
2023-01-04T23:51:52.696Z,1.88
2023-01-04T23:54:20.039Z,1.42
2023-01-04T23:56:46.872Z,2.17
2023-01-04T23:59:13.910Z,1.85
